Terminal Aerodrome Forecast
Issued by NWS

Home | Current Version | Previous Version | Text Only | Print | Product List | Glossary On
Versions: 1 2 3 4 5 6 7 8 9 10 11 12 13 14 15 16 17 18 19 20
000
FTUS43 KIND 170500 AAA
TAFLAF
TAF AMD
KLAF 170549Z 1706/1806 VRB03KT 1SM BR BCFG SKC
      TEMPO 1706/1710 1/4SM FG VV001
     FM171000 VRB03KT 1SM BR BCFG SKC
     FM171300 VRB03KT P6SM SCT035
     FM171600 25006KT P6SM BKN050
     FM172200 33005KT P6SM SCT050
      AMD LTD TO CLD AND VIS TIL 171300=

USA.gov is the U.S. government's official web portal to all federal, state and local government web resources and services.